Time,TemperatureF,DewpointF,PressureIn,WindDirection,WindDirectionDegrees,WindSpeedMPH,WindSpeedGustMPH,Humidity,HourlyPrecipIn,Conditions,Clouds,dailyrainin,SolarRadiationWatts/m^2,SoftwareType,DateUTC
2013-05-18 00:14:00,44.9,35.0,30.19,SW,229,0.0,1.0,68,0.00,,,0.00,0,weatherlink.com 1.10,2013-05-18 04:14:00,
2013-05-18 00:29:00,45.3,34.0,30.20,SW,229,0.0,1.0,66,0.00,,,0.00,0,weatherlink.com 1.10,2013-05-18 04:29:00,
2013-05-18 00:44:00,45.6,35.0,30.19,SW,229,0.0,1.0,67,0.00,,,0.00,0,weatherlink.com 1.10,2013-05-18 04:44:00,
2013-05-18 00:59:00,45.2,36.0,30.19,SW,229,0.0,0.0,70,0.00,,,0.00,0,weatherlink.com 1.10,2013-05-18 04:59:00,
2013-05-18 01:14:00,45.4,35.0,30.19,SW,229,0.0,1.0,66,0.00,,,0.00,0,weatherlink.com 1.10,2013-05-18 05:14:00,
2013-05-18 01:29:00,45.9,36.0,30.19,SW,229,0.0,1.0,68,0.00,,,0.00,0,weatherlink.com 1.10,2013-05-18 05:29:00,
2013-05-18 01:44:00,45.0,36.0,30.19,SW,229,0.0,1.0,72,0.00,,,0.00,0,weatherlink.com 1.10,2013-05-18 05:44:00,
2013-05-18 01:59:00,44.2,36.0,30.19,SW,229,0.0,0.0,72,0.00,,,0.00,0,weatherlink.com 1.10,2013-05-18 05:59:00,
2013-05-18 02:14:00,44.2,35.0,30.19,SW,229,0.0,1.0,70,0.00,,,0.00,0,weatherlink.com 1.10,2013-05-18 06:14:00,
2013-05-18 02:29:00,43.8,35.0,30.18,SW,229,0.0,1.0,70,0.00,,,0.00,0,weatherlink.com 1.10,2013-05-18 06:29:00,
2013-05-18 02:44:00,43.9,34.0,30.19,SW,229,0.0,0.0,69,0.00,,,0.00,0,weatherlink.com 1.10,2013-05-18 06:44:00,
2013-05-18 02:59:00,44.9,34.0,30.19,SW,229,0.0,1.0,66,0.00,,,0.00,0,weatherlink.com 1.10,2013-05-18 06:59:00,
2013-05-18 03:14:00,44.0,34.0,30.19,SW,229,1.0,1.0,68,0.00,,,0.00,0,weatherlink.com 1.10,2013-05-18 07:14:00,
2013-05-18 03:29:00,43.4,34.0,30.19,SW,229,0.0,1.0,69,0.00,,,0.00,0,weatherlink.com 1.10,2013-05-18 07:29:00,
2013-05-18 03:44:00,42.5,34.0,30.19,SW,229,0.0,0.0,72,0.00,,,0.00,0,weatherlink.com 1.10,2013-05-18 07:44:00,
2013-05-18 03:59:00,43.0,33.0,30.20,SW,229,0.0,1.0,69,0.00,,,0.00,0,weatherlink.com 1.10,2013-05-18 07:59:00,
2013-05-18 04:14:00,43.4,33.0,30.20,SW,229,0.0,1.0,68,0.00,,,0.00,0,weatherlink.com 1.10,2013-05-18 08:14:00,
2013-05-18 04:29:00,43.7,34.0,30.20,SW,229,0.0,1.0,68,0.00,,,0.00,0,weatherlink.com 1.10,2013-05-18 08:29:00,
2013-05-18 04:44:00,43.3,34.0,30.20,SW,229,0.0,1.0,69,0.00,,,0.00,0,weatherlink.com 1.10,2013-05-18 08:44:00,
2013-05-18 04:59:00,42.8,34.0,30.21,SW,229,0.0,1.0,71,0.00,,,0.00,0,weatherlink.com 1.10,2013-05-18 08:59:00,
2013-05-18 05:14:00,42.8,34.0,30.21,SW,229,0.0,1.0,70,0.00,,,0.00,0,weatherlink.com 1.10,2013-05-18 09:14:00,
2013-05-18 05:29:00,43.4,34.0,30.21,SW,229,0.0,1.0,69,0.00,,,0.00,5,weatherlink.com 1.10,2013-05-18 09:29:00,
2013-05-18 05:44:00,43.4,34.0,30.22,SW,229,0.0,0.0,70,0.00,,,0.00,19,weatherlink.com 1.10,2013-05-18 09:44:00,
2013-05-18 05:59:00,44.5,34.0,30.22,SW,229,0.0,0.0,67,0.00,,,0.00,44,weatherlink.com 1.10,2013-05-18 09:59:00,
2013-05-18 06:14:00,46.4,36.0,30.23,SW,229,0.0,0.0,68,0.00,,,0.00,81,weatherlink.com 1.10,2013-05-18 10:14:00,
2013-05-18 06:29:00,48.1,39.0,30.23,SW,229,0.0,0.0,71,0.00,,,0.00,111,weatherlink.com 1.10,2013-05-18 10:29:00,
2013-05-18 06:46:00,51.0,37.0,30.23,SW,229,0.0,1.0,60,0.00,,,0.00,162,weatherlink.com 1.10,2013-05-18 10:46:00,
2013-05-18 07:01:00,51.5,37.0,30.24,SW,229,0.0,1.0,58,0.00,,,0.00,216,weatherlink.com 1.10,2013-05-18 11:01:00,
2013-05-18 07:16:00,52.5,39.0,30.24,SW,229,0.0,1.0,61,0.00,,,0.00,267,weatherlink.com 1.10,2013-05-18 11:16:00,
2013-05-18 07:31:00,52.8,41.0,30.24,SW,229,0.0,1.0,64,0.00,,,0.00,320,weatherlink.com 1.10,2013-05-18 11:31:00,
2013-05-18 07:46:00,54.3,42.0,30.24,SW,229,0.0,1.0,63,0.00,,,0.00,367,weatherlink.com 1.10,2013-05-18 11:46:00,
2013-05-18 08:01:00,54.6,42.0,30.25,SW,230,0.0,2.0,63,0.00,,,0.00,431,weatherlink.com 1.10,2013-05-18 12:01:00,
2013-05-18 08:16:00,55.7,41.0,30.25,NW,323,0.0,4.0,58,0.00,,,0.00,538,weatherlink.com 1.10,2013-05-18 12:16:00,
2013-05-18 08:31:00,57.4,38.0,30.25,North,355,2.0,5.0,49,0.00,,,0.00,531,weatherlink.com 1.10,2013-05-18 12:31:00,
2013-05-18 08:47:00,58.3,36.0,30.25,NW,326,0.0,6.0,43,0.00,,,0.00,636,weatherlink.com 1.10,2013-05-18 12:47:00,
2013-05-18 09:01:00,58.7,36.0,30.25,NNE,31,2.0,2.0,43,0.00,,,0.00,288,weatherlink.com 1.10,2013-05-18 13:01:00,
2013-05-18 09:17:00,58.4,36.0,30.25,SSW,203,0.0,8.0,43,0.00,,,0.00,229,weatherlink.com 1.10,2013-05-18 13:17:00,
2013-05-18 09:32:00,57.9,35.0,30.25,SSW,195,0.0,11.0,43,0.00,,,0.00,283,weatherlink.com 1.10,2013-05-18 13:32:00,
2013-05-18 09:47:00,59.0,38.0,30.25,SSE,161,2.0,15.0,45,0.00,,,0.00,759,weatherlink.com 1.10,2013-05-18 13:47:00,
2013-05-18 10:02:00,58.8,37.0,30.25,SSW,200,2.0,5.0,44,0.00,,,0.00,302,weatherlink.com 1.10,2013-05-18 14:02:00,
2013-05-18 10:17:00,60.1,37.0,30.25,WNW,292,0.0,10.0,42,0.00,,,0.00,313,weatherlink.com 1.10,2013-05-18 14:17:00,
2013-05-18 10:32:00,60.1,36.0,30.25,SSE,168,6.0,14.0,41,0.00,,,0.00,700,weatherlink.com 1.10,2013-05-18 14:32:00,
2013-05-18 10:48:00,60.9,36.0,30.25,SW,226,2.0,11.0,40,0.00,,,0.00,288,weatherlink.com 1.10,2013-05-18 14:48:00,
2013-05-18 11:02:00,59.3,37.0,30.25,South,182,7.0,7.0,43,0.00,,,0.00,334,weatherlink.com 1.10,2013-05-18 15:02:00,
2013-05-18 11:18:00,59.8,36.0,30.24,South,178,5.0,9.0,42,0.00,,,0.00,338,weatherlink.com 1.10,2013-05-18 15:18:00,
2013-05-18 11:33:00,60.9,37.0,30.24,WNW,291,0.0,7.0,41,0.00,,,0.00,526,weatherlink.com 1.10,2013-05-18 15:33:00,
2013-05-18 11:48:00,61.9,37.0,30.24,WSW,245,1.0,6.0,40,0.00,,,0.00,1157,weatherlink.com 1.10,2013-05-18 15:48:00,
2013-05-18 12:03:00,62.6,39.0,30.23,NNE,32,1.0,9.0,42,0.00,,,0.00,315,weatherlink.com 1.10,2013-05-18 16:03:00,
2013-05-18 12:19:00,61.3,38.0,30.23,NW,314,0.0,5.0,42,0.00,,,0.00,418,weatherlink.com 1.10,2013-05-18 16:19:00,
2013-05-18 12:34:00,63.0,37.0,30.23,NNW,336,0.0,11.0,38,0.00,,,0.00,1099,weatherlink.com 1.10,2013-05-18 16:34:00,
2013-05-18 12:49:00,63.2,39.0,30.22,WNW,295,0.0,9.0,41,0.00,,,0.00,879,weatherlink.com 1.10,2013-05-18 16:49:00,
2013-05-18 13:04:00,62.7,38.0,30.21,ESE,123,1.0,10.0,41,0.00,,,0.00,345,weatherlink.com 1.10,2013-05-18 17:04:00,
2013-05-18 13:19:00,62.4,37.0,30.20,NW,315,4.0,10.0,39,0.00,,,0.00,378,weatherlink.com 1.10,2013-05-18 17:19:00,
2013-05-18 13:34:00,62.3,38.0,30.20,NNE,18,0.0,5.0,41,0.00,,,0.00,988,weatherlink.com 1.10,2013-05-18 17:34:00,
2013-05-18 13:51:00,64.2,40.0,30.20,SW,215,1.0,14.0,41,0.00,,,0.00,1111,weatherlink.com 1.10,2013-05-18 17:51:00,
2013-05-18 14:04:00,64.5,40.0,30.20,WNW,302,0.0,16.0,41,0.00,,,0.00,1049,weatherlink.com 1.10,2013-05-18 18:04:00,
2013-05-18 14:21:00,65.5,38.0,30.19,WNW,298,1.0,9.0,37,0.00,,,0.00,1055,weatherlink.com 1.10,2013-05-18 18:21:00,
2013-05-18 14:35:00,65.4,38.0,30.19,SSW,205,1.0,10.0,37,0.00,,,0.00,1023,weatherlink.com 1.10,2013-05-18 18:35:00,
2013-05-18 14:51:00,65.4,38.0,30.19,SW,215,0.0,4.0,36,0.00,,,0.00,969,weatherlink.com 1.10,2013-05-18 18:51:00,
2013-05-18 15:05:00,63.8,38.0,30.19,WSW,245,0.0,5.0,39,0.00,,,0.00,206,weatherlink.com 1.10,2013-05-18 19:05:00,
2013-05-18 15:21:00,62.3,38.0,30.18,SSW,207,0.0,6.0,41,0.00,,,0.00,223,weatherlink.com 1.10,2013-05-18 19:21:00,
2013-05-18 15:35:00,62.5,38.0,30.18,SW,218,0.0,4.0,41,0.00,,,0.00,220,weatherlink.com 1.10,2013-05-18 19:35:00,
2013-05-18 15:51:00,62.7,41.0,30.18,SE,146,9.0,10.0,46,0.00,,,0.00,714,weatherlink.com 1.10,2013-05-18 19:51:00,
2013-05-18 16:05:00,63.2,39.0,30.17,SSW,196,11.0,14.0,41,0.00,,,0.00,230,weatherlink.com 1.10,2013-05-18 20:05:00,
2013-05-18 16:21:00,64.0,41.0,30.17,SE,133,1.0,5.0,44,0.00,,,0.00,809,weatherlink.com 1.10,2013-05-18 20:21:00,
2013-05-18 16:36:00,64.8,39.0,30.17,SE,136,6.0,12.0,39,0.00,,,0.00,613,weatherlink.com 1.10,2013-05-18 20:36:00,
2013-05-18 16:51:00,65.7,37.0,30.17,WNW,285,1.0,7.0,35,0.00,,,0.00,599,weatherlink.com 1.10,2013-05-18 20:51:00,
2013-05-18 17:06:00,66.5,38.0,30.17,NW,312,0.0,9.0,35,0.00,,,0.00,596,weatherlink.com 1.10,2013-05-18 21:06:00,
2013-05-18 17:21:00,65.1,37.0,30.17,SSW,207,0.0,15.0,36,0.00,,,0.00,146,weatherlink.com 1.10,2013-05-18 21:21:00,
2013-05-18 17:36:00,64.0,38.0,30.17,WNW,296,0.0,7.0,38,0.00,,,0.00,237,weatherlink.com 1.10,2013-05-18 21:36:00,
2013-05-18 17:51:00,64.1,38.0,30.17,SW,215,1.0,6.0,38,0.00,,,0.00,214,weatherlink.com 1.10,2013-05-18 21:51:00,
2013-05-18 18:07:00,64.0,40.0,30.17,West,273,1.0,4.0,41,0.00,,,0.00,199,weatherlink.com 1.10,2013-05-18 22:07:00,
2013-05-18 18:22:00,63.4,37.0,30.17,South,181,0.0,4.0,38,0.00,,,0.00,130,weatherlink.com 1.10,2013-05-18 22:22:00,
2013-05-18 18:37:00,63.1,40.0,30.18,WNW,289,1.0,4.0,43,0.00,,,0.00,100,weatherlink.com 1.10,2013-05-18 22:37:00,
2013-05-18 18:52:00,61.9,37.0,30.18,SSW,198,0.0,6.0,40,0.00,,,0.00,77,weatherlink.com 1.10,2013-05-18 22:52:00,
2013-05-18 19:08:00,61.3,40.0,30.18,NW,305,0.0,7.0,45,0.00,,,0.00,56,weatherlink.com 1.10,2013-05-18 23:08:00,
2013-05-18 19:22:00,60.3,40.0,30.18,NW,305,0.0,1.0,48,0.00,,,0.00,39,weatherlink.com 1.10,2013-05-18 23:22:00,
2013-05-18 19:37:00,59.0,42.0,30.18,WSW,252,0.0,4.0,53,0.00,,,0.00,26,weatherlink.com 1.10,2013-05-18 23:37:00,
2013-05-18 19:53:00,58.1,42.0,30.18,South,180,0.0,7.0,56,0.00,,,0.00,16,weatherlink.com 1.10,2013-05-18 23:53:00,
2013-05-18 20:08:00,57.1,41.0,30.18,South,184,0.0,1.0,55,0.00,,,0.00,0,weatherlink.com 1.10,2013-05-19 00:08:00,
2013-05-18 20:23:00,55.7,41.0,30.18,SSW,198,0.0,2.0,58,0.00,,,0.00,0,weatherlink.com 1.10,2013-05-19 00:23:00,
2013-05-18 20:38:00,54.5,41.0,30.18,West,267,0.0,1.0,61,0.00,,,0.00,0,weatherlink.com 1.10,2013-05-19 00:38:00,
2013-05-18 20:53:00,54.1,42.0,30.18,West,265,0.0,1.0,64,0.00,,,0.00,0,weatherlink.com 1.10,2013-05-19 00:53:00,
2013-05-18 21:08:00,53.4,42.0,30.18,SSE,166,0.0,4.0,66,0.00,,,0.00,0,weatherlink.com 1.10,2013-05-19 01:08:00,
2013-05-18 21:24:00,53.7,43.0,30.19,SW,219,0.0,5.0,68,0.00,,,0.00,0,weatherlink.com 1.10,2013-05-19 01:24:00,
2013-05-18 21:39:00,53.8,43.0,30.19,SE,146,0.0,2.0,67,0.00,,,0.00,0,weatherlink.com 1.10,2013-05-19 01:39:00,
2013-05-18 21:54:00,52.2,43.0,30.20,SE,138,0.0,2.0,71,0.00,,,0.00,0,weatherlink.com 1.10,2013-05-19 01:54:00,
2013-05-18 22:09:00,51.7,44.0,30.20,South,170,0.0,11.0,74,0.00,,,0.00,0,weatherlink.com 1.10,2013-05-19 02:09:00,
2013-05-18 22:24:00,51.2,44.0,30.20,SSE,149,0.0,0.0,75,0.00,,,0.00,0,weatherlink.com 1.10,2013-05-19 02:24:00,
2013-05-18 22:39:00,51.2,44.0,30.20,SE,138,0.0,0.0,75,0.00,,,0.00,0,weatherlink.com 1.10,2013-05-19 02:39:00,
2013-05-18 22:54:00,50.4,43.0,30.19,SE,138,0.0,1.0,76,0.00,,,0.00,0,weatherlink.com 1.10,2013-05-19 02:54:00,
2013-05-18 23:09:00,49.9,43.0,30.20,SE,142,0.0,4.0,77,0.00,,,0.00,0,weatherlink.com 1.10,2013-05-19 03:09:00,
2013-05-18 23:24:00,49.2,42.0,30.20,SE,142,0.0,0.0,77,0.00,,,0.00,0,weatherlink.com 1.10,2013-05-19 03:24:00,
2013-05-18 23:39:00,49.1,43.0,30.20,SE,142,0.0,1.0,78,0.00,,,0.00,0,weatherlink.com 1.10,2013-05-19 03:39:00,
2013-05-18 23:54:00,49.7,43.0,30.20,NNW,341,3.0,6.0,77,0.00,,,0.00,0,weatherlink.com 1.10,2013-05-19 03:54:00,